Time,TemperatureF,DewpointF,PressureIn,WindDirection,WindDirectionDegrees,WindSpeedMPH,WindSpeedGustMPH,Humidity,HourlyPrecipIn,Conditions,Clouds,dailyrainin,SoftwareType,DateUTC
2013-11-08 00:01:00,38.8,26.2,29.26,NW,305,7.2,10.7,60,0.00,,---,0.00,VWS V14.01,2013-11-08 05:01:00,
2013-11-08 00:06:00,38.7,25.6,29.26,NW,315,4.5,4.5,59,0.00,,---,0.00,VWS V14.01,2013-11-08 05:06:00,
2013-11-08 00:11:00,38.5,25.8,29.26,NNW,337,8.1,8.1,60,0.00,,---,0.00,VWS V14.01,2013-11-08 05:11:00,
2013-11-08 00:16:00,38.5,25.8,29.26,NW,319,7.2,7.2,60,0.00,,---,0.00,VWS V14.01,2013-11-08 05:16:00,
2013-11-08 00:21:00,38.1,25.5,29.26,North,349,4.5,4.5,60,0.00,,---,0.00,VWS V14.01,2013-11-08 05:21:00,
2013-11-08 00:26:00,37.9,25.3,29.26,NW,323,5.4,5.4,60,0.00,,---,0.00,VWS V14.01,2013-11-08 05:26:00,
2013-11-08 00:31:00,37.8,25.1,29.26,NNW,342,0.0,0.0,60,0.00,,---,0.00,VWS V14.01,2013-11-08 05:31:00,
2013-11-08 00:36:00,37.8,25.5,29.26,NNW,339,0.0,0.0,61,0.00,,---,0.00,VWS V14.01,2013-11-08 05:36:00,
2013-11-08 00:41:00,37.6,25.4,29.26,NNW,329,5.4,5.4,61,0.00,,---,0.00,VWS V14.01,2013-11-08 05:41:00,
2013-11-08 00:46:00,37.6,25.4,29.26,NNW,330,0.0,0.0,61,0.00,,---,0.00,VWS V14.01,2013-11-08 05:46:00,
2013-11-08 00:51:00,37.4,25.2,29.26,NNW,330,0.0,0.0,61,0.00,,---,0.00,VWS V14.01,2013-11-08 05:51:00,
2013-11-08 00:56:00,37.0,26.0,29.26,WNW,298,4.5,4.5,64,0.00,,---,0.00,VWS V14.01,2013-11-08 05:56:00,
2013-11-08 01:01:00,37.0,25.6,29.26,NNW,343,0.0,0.0,63,0.00,,---,0.00,VWS V14.01,2013-11-08 06:01:00,
2013-11-08 01:06:00,36.9,25.5,29.26,NNW,332,7.2,7.2,63,0.00,,---,0.00,VWS V14.01,2013-11-08 06:06:00,
2013-11-08 01:11:00,36.9,25.5,29.26,NNW,330,0.0,0.0,63,0.00,,---,0.00,VWS V14.01,2013-11-08 06:11:00,
2013-11-08 01:16:00,36.7,25.7,29.26,NW,312,0.0,0.0,64,0.00,,---,0.00,VWS V14.01,2013-11-08 06:16:00,
2013-11-08 01:21:00,36.5,25.5,29.26,NNW,327,0.0,0.0,64,0.00,,---,0.00,VWS V14.01,2013-11-08 06:21:00,
2013-11-08 01:26:00,36.3,25.7,29.26,North,353,6.3,6.3,65,0.00,,---,0.00,VWS V14.01,2013-11-08 06:26:00,
2013-11-08 01:31:00,36.3,25.7,29.26,NW,325,0.0,0.0,65,0.00,,---,0.00,VWS V14.01,2013-11-08 06:31:00,
2013-11-08 01:36:00,36.1,25.5,29.26,NNW,334,0.0,0.0,65,0.00,,---,0.00,VWS V14.01,2013-11-08 06:36:00,
2013-11-08 01:41:00,36.0,25.4,29.26,NNW,334,0.0,0.0,65,0.00,,---,0.00,VWS V14.01,2013-11-08 06:41:00,
2013-11-08 01:46:00,35.8,25.5,29.26,NNW,334,0.0,0.0,66,0.00,,---,0.00,VWS V14.01,2013-11-08 06:46:00,
2013-11-08 01:51:00,35.6,25.7,29.26,NNW,334,0.0,0.0,67,0.00,,---,0.00,VWS V14.01,2013-11-08 06:51:00,
2013-11-08 01:56:00,35.4,26.3,29.26,NNW,334,4.5,4.5,69,0.00,,---,0.00,VWS V14.01,2013-11-08 06:56:00,
2013-11-08 02:01:00,35.4,26.6,29.26,NW,316,6.3,6.3,70,0.00,,---,0.00,VWS V14.01,2013-11-08 07:01:00,
2013-11-08 02:06:00,35.4,26.3,29.26,NW,322,0.0,0.0,69,0.00,,---,0.00,VWS V14.01,2013-11-08 07:06:00,
2013-11-08 02:11:00,35.4,26.3,29.26,NW,322,0.0,0.0,69,0.00,,---,0.00,VWS V14.01,2013-11-08 07:11:00,
2013-11-08 02:16:00,35.4,26.3,29.26,NW,322,0.0,0.0,69,0.00,,---,0.00,VWS V14.01,2013-11-08 07:16:00,
2013-11-08 02:21:00,35.4,26.6,29.26,NNW,337,5.4,6.3,70,0.00,,---,0.00,VWS V14.01,2013-11-08 07:21:00,
2013-11-08 02:26:00,35.2,26.5,29.26,NW,324,5.4,5.4,70,0.00,,---,0.00,VWS V14.01,2013-11-08 07:26:00,
2013-11-08 02:31:00,35.2,26.5,29.26,NNW,329,5.4,5.4,70,0.00,,---,0.00,VWS V14.01,2013-11-08 07:31:00,
2013-11-08 02:36:00,35.1,26.3,29.26,NNW,329,0.0,0.0,70,0.00,,---,0.00,VWS V14.01,2013-11-08 07:36:00,
2013-11-08 02:41:00,35.1,26.3,29.26,NW,318,6.3,8.1,70,0.00,,---,0.00,VWS V14.01,2013-11-08 07:41:00,
2013-11-08 02:46:00,35.2,25.8,29.26,NW,321,0.0,0.0,68,0.00,,---,0.00,VWS V14.01,2013-11-08 07:46:00,
2013-11-08 02:51:00,35.4,25.9,29.29,NW,312,0.0,0.0,68,0.00,,---,0.00,VWS V14.01,2013-11-08 07:51:00,
2013-11-08 02:56:00,35.4,25.6,29.29,NW,325,0.0,0.0,67,0.00,,---,0.00,VWS V14.01,2013-11-08 07:56:00,
2013-11-08 03:01:00,35.4,25.9,29.29,NW,308,0.0,0.0,68,0.00,,---,0.00,VWS V14.01,2013-11-08 08:01:00,
2013-11-08 03:06:00,35.2,25.8,29.29,NW,312,0.0,6.3,68,0.00,,---,0.00,VWS V14.01,2013-11-08 08:06:00,
2013-11-08 03:11:00,35.1,25.6,29.29,NW,321,0.0,0.0,68,0.00,,---,0.00,VWS V14.01,2013-11-08 08:11:00,
2013-11-08 03:16:00,35.1,25.6,29.29,NW,317,0.0,0.0,68,0.00,,---,0.00,VWS V14.01,2013-11-08 08:16:00,
2013-11-08 03:21:00,35.1,25.2,29.29,NW,326,5.4,6.3,67,0.00,,---,0.00,VWS V14.01,2013-11-08 08:21:00,
2013-11-08 03:26:00,35.1,25.2,29.29,NNW,334,0.0,0.0,67,0.00,,---,0.00,VWS V14.01,2013-11-08 08:26:00,
2013-11-08 03:31:00,35.1,25.2,29.29,NNW,334,0.0,0.0,67,0.00,,---,0.00,VWS V14.01,2013-11-08 08:31:00,
2013-11-08 03:36:00,34.5,25.4,29.29,NW,322,0.0,0.0,69,0.00,,---,0.00,VWS V14.01,2013-11-08 08:36:00,
2013-11-08 03:41:00,34.5,25.8,29.29,NW,322,0.0,0.0,70,0.00,,---,0.00,VWS V14.01,2013-11-08 08:41:00,
2013-11-08 03:46:00,34.5,25.8,29.29,NW,322,0.0,0.0,70,0.00,,---,0.00,VWS V14.01,2013-11-08 08:46:00,
2013-11-08 03:51:00,34.3,25.6,29.29,West,278,0.0,0.0,70,0.00,,---,0.00,VWS V14.01,2013-11-08 08:51:00,
2013-11-08 03:56:00,34.3,25.6,29.29,NW,312,0.0,0.0,70,0.00,,---,0.00,VWS V14.01,2013-11-08 08:56:00,
2013-11-08 04:01:00,34.3,25.6,29.29,NW,312,0.0,0.0,70,0.00,,---,0.00,VWS V14.01,2013-11-08 09:01:00,
2013-11-08 04:06:00,34.2,25.4,29.29,NW,312,0.0,0.0,70,0.00,,---,0.00,VWS V14.01,2013-11-08 09:06:00,
2013-11-08 04:11:00,34.0,25.6,29.29,NW,312,0.0,0.0,71,0.00,,---,0.00,VWS V14.01,2013-11-08 09:11:00,
2013-11-08 04:16:00,34.0,25.9,29.29,WNW,295,0.0,0.0,72,0.00,,---,0.00,VWS V14.01,2013-11-08 09:16:00,
2013-11-08 04:21:00,34.0,26.2,29.29,WNW,295,0.0,0.0,73,0.00,,---,0.00,VWS V14.01,2013-11-08 09:21:00,
2013-11-08 04:26:00,33.8,26.1,29.29,WNW,295,0.0,0.0,73,0.00,,---,0.00,VWS V14.01,2013-11-08 09:26:00,
2013-11-08 04:31:00,33.8,26.1,29.29,WNW,295,0.0,0.0,73,0.00,,---,0.00,VWS V14.01,2013-11-08 09:31:00,
2013-11-08 04:36:00,33.6,25.6,29.29,WNW,295,0.0,0.0,72,0.00,,---,0.00,VWS V14.01,2013-11-08 09:36:00,
2013-11-08 04:41:00,33.6,25.6,29.29,WNW,295,0.0,0.0,72,0.00,,---,0.00,VWS V14.01,2013-11-08 09:41:00,
2013-11-08 04:46:00,33.4,25.7,29.29,WNW,295,0.0,0.0,73,0.00,,---,0.00,VWS V14.01,2013-11-08 09:46:00,
2013-11-08 04:51:00,33.4,26.4,29.29,WNW,295,0.0,0.0,75,0.00,,---,0.00,VWS V14.01,2013-11-08 09:51:00,
2013-11-08 04:56:00,33.4,27.0,29.29,WNW,295,0.0,0.0,77,0.00,,---,0.00,VWS V14.01,2013-11-08 09:56:00,
2013-11-08 05:01:00,33.6,27.5,29.29,WNW,295,0.0,0.0,78,0.00,,---,0.00,VWS V14.01,2013-11-08 10:01:00,
2013-11-08 05:06:00,33.6,28.1,29.29,WNW,295,0.0,0.0,80,0.00,,---,0.00,VWS V14.01,2013-11-08 10:06:00,
2013-11-08 05:11:00,33.8,28.6,29.32,WNW,295,0.0,0.0,81,0.00,,---,0.00,VWS V14.01,2013-11-08 10:11:00,
2013-11-08 05:16:00,33.8,28.6,29.32,WNW,295,0.0,0.0,81,0.00,,---,0.00,VWS V14.01,2013-11-08 10:16:00,
2013-11-08 05:21:00,33.8,28.6,29.32,WNW,295,0.0,0.0,81,0.00,,---,0.00,VWS V14.01,2013-11-08 10:21:00,
2013-11-08 05:26:00,34.0,28.8,29.32,WNW,295,0.0,0.0,81,0.00,,---,0.00,VWS V14.01,2013-11-08 10:26:00,
2013-11-08 05:31:00,34.0,28.8,29.32,WNW,295,0.0,0.0,81,0.00,,---,0.00,VWS V14.01,2013-11-08 10:31:00,
2013-11-08 05:36:00,34.3,30.3,29.32,WNW,295,0.0,0.0,85,0.00,,---,0.00,VWS V14.01,2013-11-08 10:36:00,
2013-11-08 05:41:00,34.3,30.0,29.32,WNW,295,0.0,0.0,84,0.00,,---,0.00,VWS V14.01,2013-11-08 10:41:00,
2013-11-08 05:46:00,34.5,29.6,29.32,WNW,295,0.0,0.0,82,0.00,,---,0.00,VWS V14.01,2013-11-08 10:46:00,
2013-11-08 05:51:00,34.5,29.6,29.32,WNW,295,0.0,0.0,82,0.00,,---,0.00,VWS V14.01,2013-11-08 10:51:00,
2013-11-08 05:56:00,34.7,29.8,29.32,WNW,295,0.0,0.0,82,0.00,,---,0.00,VWS V14.01,2013-11-08 10:56:00,
2013-11-08 06:01:00,34.9,30.0,29.32,WNW,295,0.0,0.0,82,0.00,,---,0.00,VWS V14.01,2013-11-08 11:01:00,
2013-11-08 06:06:00,35.4,29.2,29.32,West,276,0.0,0.0,78,0.00,,---,0.00,VWS V14.01,2013-11-08 11:06:00,
2013-11-08 06:11:00,35.4,28.6,29.32,West,277,0.0,0.0,76,0.00,,---,0.00,VWS V14.01,2013-11-08 11:11:00,
2013-11-08 06:16:00,35.8,28.0,29.32,West,279,0.0,0.0,73,0.00,,---,0.00,VWS V14.01,2013-11-08 11:16:00,
2013-11-08 06:21:00,36.0,27.5,29.32,WNW,289,0.0,0.0,71,0.00,,---,0.00,VWS V14.01,2013-11-08 11:21:00,
2013-11-08 06:26:00,36.1,27.0,29.32,NW,315,0.0,0.0,69,0.00,,---,0.00,VWS V14.01,2013-11-08 11:26:00,
2013-11-08 06:31:00,36.1,25.9,29.32,NW,326,6.3,6.3,66,0.00,,---,0.00,VWS V14.01,2013-11-08 11:31:00,
2013-11-08 06:36:00,36.3,26.4,29.32,NNW,330,5.4,5.4,67,0.00,,---,0.00,VWS V14.01,2013-11-08 11:36:00,
2013-11-08 06:41:00,36.5,26.6,29.35,WNW,297,0.0,10.7,67,0.00,,---,0.00,VWS V14.01,2013-11-08 11:41:00,
2013-11-08 06:46:00,36.7,26.0,29.35,NNW,332,0.0,0.0,65,0.00,,---,0.00,VWS V14.01,2013-11-08 11:46:00,
2013-11-08 06:51:00,36.7,25.3,29.35,NW,319,0.0,0.0,63,0.00,,---,0.00,VWS V14.01,2013-11-08 11:51:00,
2013-11-08 06:56:00,36.9,25.1,29.35,WNW,299,0.0,0.0,62,0.00,,---,0.00,VWS V14.01,2013-11-08 11:56:00,
2013-11-08 07:01:00,37.0,25.6,29.35,NNW,333,0.0,0.0,63,0.00,,---,0.00,VWS V14.01,2013-11-08 12:01:00,
2013-11-08 07:06:00,36.9,24.7,29.35,WNW,290,0.0,0.0,61,0.00,,---,0.00,VWS V14.01,2013-11-08 12:06:00,
2013-11-08 07:11:00,37.2,25.4,29.35,NNW,332,0.0,0.0,62,0.00,,---,0.00,VWS V14.01,2013-11-08 12:11:00,
2013-11-08 07:16:00,37.2,25.0,29.35,WNW,285,0.0,0.0,61,0.00,,---,0.00,VWS V14.01,2013-11-08 12:16:00,
2013-11-08 07:21:00,37.4,25.2,29.35,WNW,290,0.0,0.0,61,0.00,,---,0.00,VWS V14.01,2013-11-08 12:21:00,
2013-11-08 07:26:00,37.6,24.6,29.35,WNW,293,4.5,4.5,59,0.00,,---,0.00,VWS V14.01,2013-11-08 12:26:00,
2013-11-08 07:31:00,37.8,24.7,29.35,NW,318,5.4,5.4,59,0.00,,---,0.00,VWS V14.01,2013-11-08 12:31:00,
2013-11-08 07:36:00,37.9,23.7,29.35,NW,304,0.0,0.0,56,0.00,,---,0.00,VWS V14.01,2013-11-08 12:36:00,
2013-11-08 07:41:00,38.1,23.8,29.35,NW,314,10.7,10.7,56,0.00,,---,0.00,VWS V14.01,2013-11-08 12:41:00,
2013-11-08 07:46:00,38.5,23.3,29.35,NW,312,6.3,6.3,54,0.00,,---,0.00,VWS V14.01,2013-11-08 12:46:00,
2013-11-08 07:51:00,38.5,22.4,29.35,NW,316,7.2,12.5,52,0.00,,---,0.00,VWS V14.01,2013-11-08 12:51:00,
2013-11-08 07:56:00,38.7,23.0,29.35,WNW,282,0.0,5.4,53,0.00,,---,0.00,VWS V14.01,2013-11-08 12:56:00,
2013-11-08 08:01:00,38.7,23.5,29.35,NNW,344,7.2,7.2,54,0.00,,---,0.00,VWS V14.01,2013-11-08 13:01:00,
2013-11-08 08:06:00,38.7,23.0,29.35,NNW,336,0.0,0.0,53,0.00,,---,0.00,VWS V14.01,2013-11-08 13:06:00,
2013-11-08 08:11:00,38.8,22.3,29.35,WNW,288,4.5,8.1,51,0.00,,---,0.00,VWS V14.01,2013-11-08 13:11:00,
2013-11-08 08:16:00,39.7,22.6,29.35,West,270,5.4,10.7,50,0.00,,---,0.00,VWS V14.01,2013-11-08 13:16:00,
2013-11-08 08:21:00,40.1,23.0,29.35,WSW,258,10.7,10.7,50,0.00,,---,0.00,VWS V14.01,2013-11-08 13:21:00,
2013-11-08 08:26:00,40.1,23.0,29.35,WNW,299,8.1,8.1,50,0.00,,---,0.00,VWS V14.01,2013-11-08 13:26:00,
2013-11-08 08:31:00,40.1,23.0,29.35,NNW,338,6.3,9.8,50,0.00,,---,0.00,VWS V14.01,2013-11-08 13:31:00,
2013-11-08 08:36:00,40.6,23.9,29.35,North,357,7.2,7.2,51,0.00,,---,0.00,VWS V14.01,2013-11-08 13:36:00,
2013-11-08 08:41:00,41.2,24.0,29.35,NNW,334,5.4,5.4,50,0.00,,---,0.00,VWS V14.01,2013-11-08 13:41:00,
2013-11-08 08:46:00,41.5,23.8,29.35,NW,315,8.1,8.1,49,0.00,,---,0.00,VWS V14.01,2013-11-08 13:46:00,
2013-11-08 08:51:00,41.5,24.3,29.35,NW,312,0.0,7.2,50,0.00,,---,0.00,VWS V14.01,2013-11-08 13:51:00,
2013-11-08 08:56:00,41.7,24.0,29.35,NNW,343,8.1,8.1,49,0.00,,---,0.00,VWS V14.01,2013-11-08 13:56:00,
2013-11-08 09:01:00,41.7,24.0,29.35,NW,322,8.1,8.1,49,0.00,,---,0.00,VWS V14.01,2013-11-08 14:01:00,
2013-11-08 09:06:00,42.1,24.3,29.35,WNW,301,13.4,13.4,49,0.00,,---,0.00,VWS V14.01,2013-11-08 14:06:00,
2013-11-08 09:11:00,41.9,23.7,29.35,NNW,346,11.6,12.5,48,0.00,,---,0.00,VWS V14.01,2013-11-08 14:11:00,
2013-11-08 09:16:00,42.1,23.8,29.35,NW,315,12.5,12.5,48,0.00,,---,0.00,VWS V14.01,2013-11-08 14:16:00,
2013-11-08 09:21:00,42.8,24.5,29.35,NNW,343,7.2,10.7,48,0.00,,---,0.00,VWS V14.01,2013-11-08 14:21:00,
2013-11-08 09:26:00,43.3,25.0,29.35,NNW,331,5.4,5.4,48,0.00,,---,0.00,VWS V14.01,2013-11-08 14:26:00,
2013-11-08 09:31:00,43.7,23.8,29.35,North,357,6.3,6.3,45,0.00,,---,0.00,VWS V14.01,2013-11-08 14:31:00,
2013-11-08 09:36:00,43.7,23.8,29.35,WNW,286,0.0,6.3,45,0.00,,---,0.00,VWS V14.01,2013-11-08 14:36:00,
2013-11-08 09:41:00,44.1,24.1,29.35,North,353,12.5,12.5,45,0.00,,---,0.00,VWS V14.01,2013-11-08 14:41:00,
2013-11-08 09:46:00,45.3,25.2,29.35,West,265,7.2,7.2,45,0.00,,---,0.00,VWS V14.01,2013-11-08 14:46:00,
2013-11-08 09:51:00,45.7,23.9,29.35,NW,313,10.7,10.7,42,0.00,,---,0.00,VWS V14.01,2013-11-08 14:51:00,
2013-11-08 09:56:00,48.0,26.0,29.35,NW,304,6.3,6.3,42,0.00,,---,0.00,VWS V14.01,2013-11-08 14:56:00,
2013-11-08 10:01:00,47.8,25.9,29.35,WNW,289,7.2,7.2,42,0.00,,---,0.00,VWS V14.01,2013-11-08 15:01:00,
2013-11-08 10:06:00,50.0,27.2,29.35,NW,305,12.5,12.5,41,0.00,,---,0.00,VWS V14.01,2013-11-08 15:06:00,
2013-11-08 10:11:00,47.3,25.4,29.35,SW,229,6.3,15.2,42,0.00,,---,0.00,VWS V14.01,2013-11-08 15:11:00,
2013-11-08 10:16:00,46.0,24.2,29.35,NNW,341,5.4,5.4,42,0.00,,---,0.00,VWS V14.01,2013-11-08 15:16:00,
2013-11-08 10:21:00,46.4,24.6,29.35,NNW,329,10.7,10.7,42,0.00,,---,0.00,VWS V14.01,2013-11-08 15:21:00,
2013-11-08 10:26:00,45.9,24.1,29.35,NNW,337,11.6,13.4,42,0.00,,---,0.00,VWS V14.01,2013-11-08 15:26:00,
2013-11-08 10:31:00,46.8,24.9,29.35,NNE,16,12.5,15.2,42,0.00,,---,0.00,VWS V14.01,2013-11-08 15:31:00,
2013-11-08 10:36:00,48.4,25.8,29.35,NW,326,7.2,10.7,41,0.00,,---,0.00,VWS V14.01,2013-11-08 15:36:00,
2013-11-08 10:41:00,48.4,25.8,29.35,North,357,12.5,20.1,41,0.00,,---,0.00,VWS V14.01,2013-11-08 15:41:00,
2013-11-08 10:46:00,47.8,25.9,29.35,NNW,335,8.1,8.1,42,0.00,,---,0.00,VWS V14.01,2013-11-08 15:46:00,
2013-11-08 10:51:00,50.0,27.2,29.35,North,6,11.6,11.6,41,0.00,,---,0.00,VWS V14.01,2013-11-08 15:51:00,
2013-11-08 10:56:00,50.2,27.4,29.35,NW,321,7.2,11.6,41,0.00,,---,0.00,VWS V14.01,2013-11-08 15:56:00,
2013-11-08 11:01:00,50.0,27.2,29.35,North,357,21.0,21.0,41,0.00,,---,0.00,VWS V14.01,2013-11-08 16:01:00,
2013-11-08 11:06:00,49.6,26.9,29.35,NNW,334,6.3,6.3,41,0.00,,---,0.00,VWS V14.01,2013-11-08 16:06:00,
2013-11-08 11:11:00,50.7,26.7,29.35,North,2,25.5,25.5,39,0.00,,---,0.00,VWS V14.01,2013-11-08 16:11:00,
2013-11-08 11:16:00,51.3,27.2,29.35,NNW,344,15.2,15.2,39,0.00,,---,0.00,VWS V14.01,2013-11-08 16:16:00,
2013-11-08 11:21:00,51.8,27.0,29.35,NNW,337,12.5,12.5,38,0.00,,---,0.00,VWS V14.01,2013-11-08 16:21:00,
2013-11-08 11:26:00,55.6,29.7,29.35,NNW,341,16.1,16.1,37,0.00,,---,0.00,VWS V14.01,2013-11-08 16:26:00,
2013-11-08 11:31:00,54.1,29.1,29.32,NNW,335,9.8,17.4,38,0.00,,---,0.00,VWS V14.01,2013-11-08 16:31:00,
2013-11-08 11:36:00,54.1,29.1,29.32,WNW,290,11.6,11.6,38,0.00,,---,0.00,VWS V14.01,2013-11-08 16:36:00,
2013-11-08 11:41:00,55.8,29.9,29.32,WSW,239,8.1,8.1,37,0.00,,---,0.00,VWS V14.01,2013-11-08 16:41:00,
2013-11-08 11:46:00,54.5,29.4,29.32,West,266,16.6,16.6,38,0.00,,---,0.00,VWS V14.01,2013-11-08 16:46:00,
2013-11-08 11:51:00,55.9,30.1,29.32,WSW,251,15.2,15.2,37,0.00,,---,0.00,VWS V14.01,2013-11-08 16:51:00,
2013-11-08 11:56:00,58.1,32.0,29.32,WNW,302,10.7,10.7,37,0.00,,---,0.00,VWS V14.01,2013-11-08 16:56:00,
2013-11-08 12:01:00,60.6,34.2,29.32,WNW,301,17.4,17.4,37,0.00,,---,0.00,VWS V14.01,2013-11-08 17:01:00,
2013-11-08 12:06:00,55.4,29.6,29.32,West,266,11.6,11.6,37,0.00,,---,0.00,VWS V14.01,2013-11-08 17:06:00,
2013-11-08 12:11:00,58.8,32.6,29.32,NW,316,11.6,11.6,37,0.00,,---,0.00,VWS V14.01,2013-11-08 17:11:00,
2013-11-08 12:16:00,59.5,33.3,29.32,WSW,246,9.8,11.6,37,0.00,,---,0.00,VWS V14.01,2013-11-08 17:16:00,
2013-11-08 12:21:00,57.7,31.7,29.32,WNW,303,9.8,9.8,37,0.00,,---,0.00,VWS V14.01,2013-11-08 17:21:00,
2013-11-08 12:26:00,54.9,29.8,29.32,NW,309,14.3,14.3,38,0.00,,---,0.00,VWS V14.01,2013-11-08 17:26:00,
2013-11-08 12:31:00,51.8,27.0,29.32,WSW,244,8.1,10.7,38,0.00,,---,0.00,VWS V14.01,2013-11-08 17:31:00,
2013-11-08 12:36:00,50.2,26.2,29.32,NW,316,12.5,12.5,39,0.00,,---,0.00,VWS V14.01,2013-11-08 17:36:00,
2013-11-08 12:41:00,49.3,25.4,29.32,NW,314,7.2,7.2,39,0.00,,---,0.00,VWS V14.01,2013-11-08 17:41:00,
2013-11-08 12:46:00,49.1,25.2,29.32,NW,309,12.5,12.5,39,0.00,,---,0.00,VWS V14.01,2013-11-08 17:46:00,
2013-11-08 12:51:00,49.1,25.2,29.32,West,267,11.6,11.6,39,0.00,,---,0.00,VWS V14.01,2013-11-08 17:51:00,
2013-11-08 12:56:00,50.5,26.5,29.32,NNW,336,16.1,21.0,39,0.00,,---,0.00,VWS V14.01,2013-11-08 17:56:00,
2013-11-08 13:00:00,51.8,27.0,29.32,NNW,334,13.4,13.4,38,0.00,,---,0.00,VWS V14.01,2013-11-08 18:00:00,
2013-11-08 13:05:00,51.3,27.2,29.32,NW,326,10.7,12.5,39,0.00,,---,0.00,VWS V14.01,2013-11-08 18:05:00,
2013-11-08 13:10:00,50.9,26.8,29.32,NNE,26,12.5,12.5,39,0.00,,---,0.00,VWS V14.01,2013-11-08 18:10:00,
2013-11-08 13:15:00,50.9,26.8,29.32,North,353,9.8,17.4,39,0.00,,---,0.00,VWS V14.01,2013-11-08 18:15:00,
2013-11-08 13:20:00,50.9,26.8,29.32,NNW,337,5.4,11.6,39,0.00,,---,0.00,VWS V14.01,2013-11-08 18:20:00,
2013-11-08 13:25:00,50.4,26.4,29.32,WNW,289,17.4,17.4,39,0.00,,---,0.00,VWS V14.01,2013-11-08 18:25:00,
2013-11-08 13:30:00,49.1,25.2,29.32,NW,315,6.3,21.0,39,0.00,,---,0.00,VWS V14.01,2013-11-08 18:30:00,
2013-11-08 13:35:00,48.7,24.9,29.32,WNW,286,6.3,11.6,39,0.00,,---,0.00,VWS V14.01,2013-11-08 18:35:00,
2013-11-08 13:40:00,48.7,24.9,29.32,NNW,335,11.6,11.6,39,0.00,,---,0.00,VWS V14.01,2013-11-08 18:40:00,
2013-11-08 13:45:00,49.5,25.5,29.32,North,11,8.9,8.9,39,0.00,,---,0.00,VWS V14.01,2013-11-08 18:45:00,
2013-11-08 13:50:00,48.6,24.7,29.32,WNW,286,6.3,6.3,39,0.00,,---,0.00,VWS V14.01,2013-11-08 18:50:00,
2013-11-08 13:55:00,47.5,23.8,29.32,North,353,11.6,16.1,39,0.00,,---,0.00,VWS V14.01,2013-11-08 18:55:00,
2013-11-08 14:00:00,46.8,23.1,29.32,NW,315,10.7,10.7,39,0.00,,---,0.00,VWS V14.01,2013-11-08 19:00:00,
2013-11-08 14:05:00,46.8,23.1,29.32,NNW,331,10.7,10.7,39,0.00,,---,0.00,VWS V14.01,2013-11-08 19:05:00,
2013-11-08 14:10:00,46.6,23.0,29.32,NNE,30,12.5,12.5,39,0.00,,---,0.00,VWS V14.01,2013-11-08 19:10:00,
2013-11-08 14:15:00,46.2,23.2,29.32,West,265,17.4,17.4,40,0.00,,---,0.00,VWS V14.01,2013-11-08 19:15:00,
2013-11-08 14:20:00,46.4,22.8,29.32,WNW,284,12.5,12.5,39,0.00,,---,0.00,VWS V14.01,2013-11-08 19:20:00,
2013-11-08 14:25:00,46.2,23.2,29.32,NW,311,17.4,17.4,40,0.00,,---,0.00,VWS V14.01,2013-11-08 19:25:00,
2013-11-08 14:30:00,46.4,22.8,29.32,NW,309,10.7,10.7,39,0.00,,---,0.00,VWS V14.01,2013-11-08 19:30:00,
2013-11-08 14:35:00,46.9,23.3,29.35,NNE,18,10.7,10.7,39,0.00,,---,0.00,VWS V14.01,2013-11-08 19:35:00,
2013-11-08 14:40:00,47.1,23.5,29.35,NW,318,16.6,16.6,39,0.00,,---,0.00,VWS V14.01,2013-11-08 19:40:00,
2013-11-08 14:45:00,46.8,23.1,29.35,West,273,19.2,19.2,39,0.00,,---,0.00,VWS V14.01,2013-11-08 19:45:00,
2013-11-08 14:50:00,46.4,22.8,29.35,WNW,289,8.1,20.1,39,0.00,,---,0.00,VWS V14.01,2013-11-08 19:50:00,
2013-11-08 14:55:00,46.2,23.2,29.35,NNW,336,15.2,15.2,40,0.00,,---,0.00,VWS V14.01,2013-11-08 19:55:00,
2013-11-08 15:00:00,46.0,23.1,29.35,NNW,334,20.1,20.1,40,0.00,,---,0.00,VWS V14.01,2013-11-08 20:00:00,
2013-11-08 15:05:00,45.9,22.9,29.35,West,280,9.8,12.5,40,0.00,,---,0.00,VWS V14.01,2013-11-08 20:05:00,
2013-11-08 15:10:00,45.9,22.9,29.35,West,271,12.5,18.3,40,0.00,,---,0.00,VWS V14.01,2013-11-08 20:10:00,
2013-11-08 15:15:00,46.0,23.1,29.35,NNW,338,16.1,16.1,40,0.00,,---,0.00,VWS V14.01,2013-11-08 20:15:00,
2013-11-08 15:20:00,45.9,22.9,29.35,North,2,27.3,27.3,40,0.00,,---,0.00,VWS V14.01,2013-11-08 20:20:00,
2013-11-08 15:25:00,45.9,22.9,29.35,North,8,20.1,20.1,40,0.00,,---,0.00,VWS V14.01,2013-11-08 20:25:00,
2013-11-08 15:30:00,45.5,22.6,29.35,NW,304,17.4,26.4,40,0.00,,---,0.00,VWS V14.01,2013-11-08 20:30:00,
2013-11-08 15:35:00,45.3,22.4,29.38,NNW,329,9.8,11.6,40,0.00,,---,0.00,VWS V14.01,2013-11-08 20:35:00,
2013-11-08 15:40:00,45.0,22.1,29.38,NW,321,11.6,12.5,40,0.00,,---,0.00,VWS V14.01,2013-11-08 20:40:00,
2013-11-08 15:45:00,44.8,22.0,29.38,NW,320,16.1,16.1,40,0.00,,---,0.00,VWS V14.01,2013-11-08 20:45:00,
2013-11-08 15:50:00,44.2,21.5,29.38,NNE,25,21.0,21.0,40,0.00,,---,0.00,VWS V14.01,2013-11-08 20:50:00,
2013-11-08 15:55:00,44.2,21.5,29.38,North,353,10.7,10.7,40,0.00,,---,0.00,VWS V14.01,2013-11-08 20:55:00,
2013-11-08 16:00:00,43.9,21.1,29.38,WNW,285,16.1,16.1,40,0.00,,---,0.00,VWS V14.01,2013-11-08 21:00:00,
2013-11-08 16:05:00,43.7,21.0,29.38,NNW,332,15.2,15.2,40,0.00,,---,0.00,VWS V14.01,2013-11-08 21:05:00,
2013-11-08 16:10:00,43.5,20.8,29.38,North,0,9.8,9.8,40,0.00,,---,0.00,VWS V14.01,2013-11-08 21:10:00,
2013-11-08 16:15:00,43.2,20.5,29.38,WNW,302,10.7,16.1,40,0.00,,---,0.00,VWS V14.01,2013-11-08 21:15:00,
2013-11-08 16:20:00,43.2,20.5,29.38,WNW,295,10.7,21.0,40,0.00,,---,0.00,VWS V14.01,2013-11-08 21:20:00,
2013-11-08 16:25:00,42.8,20.2,29.38,WNW,289,12.5,21.9,40,0.00,,---,0.00,VWS V14.01,2013-11-08 21:25:00,
2013-11-08 16:30:00,42.8,20.2,29.38,NW,309,13.4,21.9,40,0.00,,---,0.00,VWS V14.01,2013-11-08 21:30:00,
2013-11-08 16:35:00,42.8,20.2,29.41,NNW,345,10.7,10.7,40,0.00,,---,0.00,VWS V14.01,2013-11-08 21:35:00,
2013-11-08 16:40:00,42.8,20.2,29.41,NNW,331,10.7,10.7,40,0.00,,---,0.00,VWS V14.01,2013-11-08 21:40:00,
2013-11-08 16:45:00,42.6,20.6,29.41,NW,316,17.4,21.0,41,0.00,,---,0.00,VWS V14.01,2013-11-08 21:45:00,
2013-11-08 16:50:00,42.4,20.4,29.41,NNW,330,26.4,26.4,41,0.00,,---,0.00,VWS V14.01,2013-11-08 21:50:00,
2013-11-08 16:55:00,42.4,20.4,29.41,North,349,11.6,11.6,41,0.00,,---,0.00,VWS V14.01,2013-11-08 21:55:00,
2013-11-08 17:00:00,41.9,19.9,29.41,NW,307,8.1,16.1,41,0.00,,---,0.00,VWS V14.01,2013-11-08 22:00:00,
2013-11-08 17:05:00,41.5,19.6,29.41,NW,324,12.5,16.6,41,0.00,,---,0.00,VWS V14.01,2013-11-08 22:05:00,
2013-11-08 17:10:00,41.5,19.6,29.41,NW,313,10.7,10.7,41,0.00,,---,0.00,VWS V14.01,2013-11-08 22:10:00,
2013-11-08 17:15:00,41.2,19.3,29.41,West,267,10.7,16.6,41,0.00,,---,0.00,VWS V14.01,2013-11-08 22:15:00,
2013-11-08 17:20:00,41.2,19.3,29.41,North,11,7.2,17.4,41,0.00,,---,0.00,VWS V14.01,2013-11-08 22:20:00,
2013-11-08 17:25:00,41.0,19.1,29.41,NNW,327,7.2,13.4,41,0.00,,---,0.00,VWS V14.01,2013-11-08 22:25:00,
2013-11-08 17:30:00,40.6,18.8,29.41,NW,319,11.6,11.6,41,0.00,,---,0.00,VWS V14.01,2013-11-08 22:30:00,
2013-11-08 17:35:00,40.5,18.6,29.44,NW,318,9.8,10.7,41,0.00,,---,0.00,VWS V14.01,2013-11-08 22:35:00,
2013-11-08 17:40:00,40.5,18.6,29.44,NW,312,11.6,11.6,41,0.00,,---,0.00,VWS V14.01,2013-11-08 22:40:00,
2013-11-08 17:45:00,40.5,18.6,29.44,WNW,299,12.5,15.2,41,0.00,,---,0.00,VWS V14.01,2013-11-08 22:45:00,
2013-11-08 17:50:00,40.5,18.6,29.44,NW,318,6.3,7.2,41,0.00,,---,0.00,VWS V14.01,2013-11-08 22:50:00,
2013-11-08 17:55:00,40.5,18.6,29.44,West,277,16.6,16.6,41,0.00,,---,0.00,VWS V14.01,2013-11-08 22:55:00,
2013-11-08 18:00:00,40.3,18.5,29.44,WNW,293,11.6,11.6,41,0.00,,---,0.00,VWS V14.01,2013-11-08 23:00:00,
2013-11-08 18:05:00,40.1,18.3,29.44,NNW,336,8.1,8.1,41,0.00,,---,0.00,VWS V14.01,2013-11-08 23:05:00,
2013-11-08 18:10:00,39.9,18.1,29.44,NW,324,20.1,21.9,41,0.00,,---,0.00,VWS V14.01,2013-11-08 23:10:00,
2013-11-08 18:15:00,39.9,18.1,29.44,WNW,284,13.4,13.4,41,0.00,,---,0.00,VWS V14.01,2013-11-08 23:15:00,
2013-11-08 18:20:00,39.9,18.1,29.44,North,3,16.6,16.6,41,0.00,,---,0.00,VWS V14.01,2013-11-08 23:20:00,
2013-11-08 18:25:00,39.7,18.0,29.44,NW,306,8.1,8.1,41,0.00,,---,0.00,VWS V14.01,2013-11-08 23:25:00,
2013-11-08 18:30:00,39.7,18.0,29.44,NNW,329,11.6,11.6,41,0.00,,---,0.00,VWS V14.01,2013-11-08 23:30:00,
2013-11-08 18:35:00,39.6,17.8,29.47,NNW,338,16.1,16.1,41,0.00,,---,0.00,VWS V14.01,2013-11-08 23:35:00,
2013-11-08 18:40:00,39.4,17.7,29.47,NW,316,11.6,21.9,41,0.00,,---,0.00,VWS V14.01,2013-11-08 23:40:00,
2013-11-08 18:45:00,39.4,17.7,29.47,WSW,257,17.4,17.4,41,0.00,,---,0.00,VWS V14.01,2013-11-08 23:45:00,
2013-11-08 18:50:00,39.2,17.5,29.47,NW,312,10.7,12.5,41,0.00,,---,0.00,VWS V14.01,2013-11-08 23:50:00,
2013-11-08 18:55:00,39.4,17.7,29.47,NNW,339,16.6,16.6,41,0.00,,---,0.00,VWS V14.01,2013-11-08 23:55:00,
2013-11-08 19:00:00,39.0,17.3,29.47,NNW,328,7.2,7.2,41,0.00,,---,0.00,VWS V14.01,2013-11-09 00:00:00,
2013-11-08 19:05:00,38.8,17.2,29.47,NNW,332,9.8,9.8,41,0.00,,---,0.00,VWS V14.01,2013-11-09 00:05:00,
2013-11-08 19:10:00,38.8,17.2,29.47,WNW,282,15.2,17.4,41,0.00,,---,0.00,VWS V14.01,2013-11-09 00:10:00,
2013-11-08 19:15:00,38.8,17.2,29.47,WNW,293,11.6,11.6,41,0.00,,---,0.00,VWS V14.01,2013-11-09 00:15:00,
2013-11-08 19:20:00,38.7,17.0,29.47,NNW,334,16.6,16.6,41,0.00,,---,0.00,VWS V14.01,2013-11-09 00:20:00,
2013-11-08 19:25:00,38.5,16.8,29.47,NNW,335,8.1,8.1,41,0.00,,---,0.00,VWS V14.01,2013-11-09 00:25:00,
2013-11-08 19:30:00,38.3,16.7,29.47,NNW,342,15.2,15.2,41,0.00,,---,0.00,VWS V14.01,2013-11-09 00:30:00,
2013-11-08 19:35:00,38.1,16.5,29.50,NW,305,7.2,7.2,41,0.00,,---,0.00,VWS V14.01,2013-11-09 00:35:00,
2013-11-08 19:40:00,37.9,16.4,29.50,NW,315,0.0,0.0,41,0.00,,---,0.00,VWS V14.01,2013-11-09 00:40:00,
2013-11-08 19:45:00,37.6,16.0,29.50,NNW,337,8.1,8.1,41,0.00,,---,0.00,VWS V14.01,2013-11-09 00:45:00,
2013-11-08 19:50:00,37.4,15.9,29.50,North,349,9.8,9.8,41,0.00,,---,0.00,VWS V14.01,2013-11-09 00:50:00,
2013-11-08 19:55:00,37.4,15.9,29.50,NNW,332,5.4,11.6,41,0.00,,---,0.00,VWS V14.01,2013-11-09 00:55:00,
2013-11-08 20:00:00,37.2,16.3,29.50,NNW,331,11.6,11.6,42,0.00,,---,0.00,VWS V14.01,2013-11-09 01:00:00,
2013-11-08 20:05:00,37.0,16.1,29.50,NW,324,5.4,5.4,42,0.00,,---,0.00,VWS V14.01,2013-11-09 01:05:00,
2013-11-08 20:10:00,37.0,16.1,29.50,NW,325,9.8,9.8,42,0.00,,---,0.00,VWS V14.01,2013-11-09 01:10:00,
2013-11-08 20:15:00,36.9,17.0,29.50,NNW,340,11.6,11.6,44,0.00,,---,0.00,VWS V14.01,2013-11-09 01:15:00,
2013-11-08 20:20:00,37.0,17.2,29.50,NW,309,24.6,24.6,44,0.00,,---,0.00,VWS V14.01,2013-11-09 01:20:00,
2013-11-08 20:25:00,37.2,17.3,29.50,NNW,328,8.9,10.7,44,0.00,,---,0.00,VWS V14.01,2013-11-09 01:25:00,
2013-11-08 20:30:00,37.2,17.3,29.50,NW,315,8.9,12.5,44,0.00,,---,0.00,VWS V14.01,2013-11-09 01:30:00,
2013-11-08 20:35:00,37.0,17.2,29.50,North,357,8.1,8.1,44,0.00,,---,0.00,VWS V14.01,2013-11-09 01:35:00,
2013-11-08 20:40:00,37.0,17.2,29.50,North,357,10.7,10.7,44,0.00,,---,0.00,VWS V14.01,2013-11-09 01:40:00,
2013-11-08 20:45:00,37.0,17.2,29.50,NW,313,9.8,11.6,44,0.00,,---,0.00,VWS V14.01,2013-11-09 01:45:00,
2013-11-08 20:50:00,37.2,17.3,29.50,NW,311,6.3,6.3,44,0.00,,---,0.00,VWS V14.01,2013-11-09 01:50:00,
2013-11-08 20:55:00,37.0,17.2,29.50,North,0,5.4,5.4,44,0.00,,---,0.00,VWS V14.01,2013-11-09 01:55:00,
2013-11-08 21:00:00,36.9,17.0,29.50,NW,308,8.1,11.6,44,0.00,,---,0.00,VWS V14.01,2013-11-09 02:00:00,
2013-11-08 21:05:00,37.0,17.2,29.50,WNW,293,9.8,9.8,44,0.00,,---,0.00,VWS V14.01,2013-11-09 02:05:00,
2013-11-08 21:10:00,36.9,17.0,29.53,WNW,301,10.7,10.7,44,0.00,,---,0.00,VWS V14.01,2013-11-09 02:10:00,
2013-11-08 21:15:00,36.7,16.8,29.53,North,353,7.2,11.6,44,0.00,,---,0.00,VWS V14.01,2013-11-09 02:15:00,
2013-11-08 21:20:00,36.5,16.7,29.53,NNW,332,0.0,0.0,44,0.00,,---,0.00,VWS V14.01,2013-11-09 02:20:00,
2013-11-08 21:25:00,36.7,16.8,29.53,NNW,328,9.8,9.8,44,0.00,,---,0.00,VWS V14.01,2013-11-09 02:25:00,
2013-11-08 21:30:00,36.7,16.8,29.53,WNW,300,9.8,9.8,44,0.00,,---,0.00,VWS V14.01,2013-11-09 02:30:00,
2013-11-08 21:35:00,36.7,16.8,29.53,NW,314,16.1,16.1,44,0.00,,---,0.00,VWS V14.01,2013-11-09 02:35:00,
2013-11-08 21:40:00,36.5,16.7,29.53,NW,323,6.3,8.1,44,0.00,,---,0.00,VWS V14.01,2013-11-09 02:40:00,
2013-11-08 21:45:00,36.1,17.9,29.53,NNW,341,12.5,12.5,47,0.00,,---,0.00,VWS V14.01,2013-11-09 02:45:00,
2013-11-08 21:50:00,36.3,18.0,29.53,NNW,328,11.6,11.6,47,0.00,,---,0.00,VWS V14.01,2013-11-09 02:50:00,
2013-11-08 21:55:00,36.3,18.0,29.53,NW,315,8.1,8.1,47,0.00,,---,0.00,VWS V14.01,2013-11-09 02:55:00,
2013-11-08 22:00:00,36.1,17.9,29.53,NNW,328,8.1,8.1,47,0.00,,---,0.00,VWS V14.01,2013-11-09 03:00:00,
2013-11-08 22:05:00,36.0,17.7,29.53,NW,317,10.7,10.7,47,0.00,,---,0.00,VWS V14.01,2013-11-09 03:05:00,
2013-11-08 22:10:00,36.0,17.7,29.53,NW,317,7.2,7.2,47,0.00,,---,0.00,VWS V14.01,2013-11-09 03:10:00,
2013-11-08 22:15:00,35.8,17.5,29.53,North,2,0.0,0.0,47,0.00,,---,0.00,VWS V14.01,2013-11-09 03:15:00,
2013-11-08 22:20:00,35.8,17.5,29.53,WNW,292,5.4,5.4,47,0.00,,---,0.00,VWS V14.01,2013-11-09 03:20:00,
2013-11-08 22:25:00,35.6,18.3,29.53,NNW,331,8.1,8.1,49,0.00,,---,0.00,VWS V14.01,2013-11-09 03:25:00,
2013-11-08 22:30:00,35.6,18.3,29.53,NW,324,6.3,6.3,49,0.00,,---,0.00,VWS V14.01,2013-11-09 03:30:00,
2013-11-08 22:35:00,35.4,18.6,29.53,NNW,342,6.3,6.3,50,0.00,,---,0.00,VWS V14.01,2013-11-09 03:35:00,
2013-11-08 22:40:00,35.2,18.5,29.53,NW,313,0.0,0.0,50,0.00,,---,0.00,VWS V14.01,2013-11-09 03:40:00,
2013-11-08 22:45:00,35.1,18.3,29.53,NW,316,6.3,6.3,50,0.00,,---,0.00,VWS V14.01,2013-11-09 03:45:00,
2013-11-08 22:50:00,34.9,18.1,29.53,West,278,7.2,9.8,50,0.00,,---,0.00,VWS V14.01,2013-11-09 03:50:00,
2013-11-08 22:55:00,34.9,18.1,29.53,WSW,257,5.4,8.1,50,0.00,,---,0.00,VWS V14.01,2013-11-09 03:55:00,
2013-11-08 23:00:00,34.9,18.1,29.53,NNW,340,7.2,8.1,50,0.00,,---,0.00,VWS V14.01,2013-11-09 04:00:00,
2013-11-08 23:04:00,34.9,18.1,29.53,NNW,343,5.4,5.4,50,0.00,,---,0.00,VWS V14.01,2013-11-09 04:04:00,
2013-11-08 23:09:00,34.9,18.1,29.53,NW,317,6.3,6.3,50,0.00,,---,0.00,VWS V14.01,2013-11-09 04:09:00,
2013-11-08 23:14:00,34.9,18.1,29.53,NNW,328,6.3,9.8,50,0.00,,---,0.00,VWS V14.01,2013-11-09 04:14:00,
2013-11-08 23:19:00,34.7,18.0,29.53,NW,307,8.1,8.1,50,0.00,,---,0.00,VWS V14.01,2013-11-09 04:19:00,
2013-11-08 23:24:00,34.7,18.4,29.53,NW,321,0.0,0.0,51,0.00,,---,0.00,VWS V14.01,2013-11-09 04:24:00,
2013-11-08 23:29:00,34.5,18.3,29.53,NW,313,5.4,5.4,51,0.00,,---,0.00,VWS V14.01,2013-11-09 04:29:00,
2013-11-08 23:34:00,34.5,18.3,29.56,NW,321,6.3,6.3,51,0.00,,---,0.00,VWS V14.01,2013-11-09 04:34:00,
2013-11-08 23:39:00,34.5,18.3,29.56,WNW,285,7.2,7.2,51,0.00,,---,0.00,VWS V14.01,2013-11-09 04:39:00,
2013-11-08 23:44:00,34.3,18.1,29.56,WNW,282,0.0,0.0,51,0.00,,---,0.00,VWS V14.01,2013-11-09 04:44:00,
2013-11-08 23:49:00,34.2,17.9,29.56,NW,315,8.1,8.1,51,0.00,,---,0.00,VWS V14.01,2013-11-09 04:49:00,
2013-11-08 23:54:00,34.2,17.9,29.56,NW,318,5.4,5.4,51,0.00,,---,0.00,VWS V14.01,2013-11-09 04:54:00,
2013-11-08 23:59:00,34.2,17.9,29.56,NW,323,0.0,0.0,51,0.00,,---,0.00,VWS V14.01,2013-11-09 04:59:00,